Decoded Metar for KLSE (LA CROSSE in WI, USA) (IATA:LSE) | Meteo·Mobile Aviation Weather
aviador You're here:

KLSE Decoded Metar

LA CROSSE in WI, USA
Report Time2018-09-21 12:16:00
UTC Time2018-09-21 12:27:25
Flight Rules mvfr MVFR
Wind290° at 18 Gusting to 25 kt
W.Decomp.*RWY 31: 16.7 kt HW 6.7 kt LCW
RWY 36: 5.6 kt HW 17.1 kt LCW
RWY 21: 3.7 kt HW 17.6 kt RCW
W.Rank290° ranks 16
Current wind is above 290° avg. (9.3)
Visibility9999 m
Phenomena:N/A
Clouds:Broken 028 Hf
Overcast 033 Hf
Expected CloudBase > 1,600 ft AGL from Temp-Dew spread
Ceiling2,800 ft
Temp16°C (ISA +2)
Dew Point12°C (77% RH)
AAT10.1°C
QNH1009 hPa
Density Alt1,250 ft
Elevation653 ft
Report Wrong Elevation
Raw Report
KLSE 211216Z 29018G25KT 10SM BKN028 OVC033 16/12 A2980 RMK AO2 PK
WND 27029/1155 T01610117=

Extra information for KLSE:More info

Metar Taf Metar & Taf Last 4 Metars F.Rules Stats Wind Profile Meteogram Temp Stats Airport Information Weather charts Add Link Nearby VenuesMetar ALERT Operation Metar Decoded Social comments

AIRNAV info for KLSE